createdAt,value
2023-01-06T00:02:03.163Z,97826.41
2023-01-06T00:04:29.605Z,97827.16
2023-01-06T00:06:55.991Z,97829.78
2023-01-06T00:09:22.379Z,97826.47
2023-01-06T00:11:48.752Z,97818.69
2023-01-06T00:14:15.239Z,97826.47
2023-01-06T00:16:41.641Z,97822.31
2023-01-06T00:19:10.546Z,97822.63
2023-01-06T00:21:36.965Z,97822.47
2023-01-06T00:24:03.407Z,97817.16
2023-01-06T00:26:29.852Z,97813.81
2023-01-06T00:28:56.836Z,97816.66
2023-01-06T00:31:23.377Z,97807.75
2023-01-06T00:33:49.870Z,97807.59
2023-01-06T00:36:16.319Z,97805.84
2023-01-06T00:38:42.852Z,97808.53
2023-01-06T00:41:29.403Z,97798.81
2023-01-06T00:43:59.731Z,97803.06
2023-01-06T00:46:29.219Z,97802.03
2023-01-06T00:49:04.645Z,97805.34
2023-01-06T00:51:32.390Z,97801.69
2023-01-06T00:53:59.449Z,97792.06
2023-01-06T00:56:25.869Z,97794.81
2023-01-06T00:58:52.377Z,97796.44
2023-01-06T01:01:18.847Z,97799.13
2023-01-06T01:03:45.281Z,97793.81
2023-01-06T01:06:11.714Z,97799.13
2023-01-06T01:08:38.305Z,97800.13
2023-01-06T01:11:08.864Z,97797.66
2023-01-06T01:13:35.895Z,97799.53
2023-01-06T01:16:09.036Z,97789.47
2023-01-06T01:18:35.974Z,97792.28
2023-01-06T01:21:02.690Z,97791.44
2023-01-06T01:23:29.088Z,97787.19
2023-01-06T01:25:56.115Z,97789.31
2023-01-06T01:28:22.548Z,97784.53
2023-01-06T01:30:48.990Z,97778.66
2023-01-06T01:33:15.389Z,97784.28
2023-01-06T01:35:41.772Z,97787.94
2023-01-06T01:38:08.250Z,97791.41
2023-01-06T01:40:34.593Z,97786.69
2023-01-06T01:43:00.968Z,97781.28
2023-01-06T01:45:28.539Z,97783.50
2023-01-06T01:48:01.070Z,97784.47
2023-01-06T01:50:32.723Z,97787.16
2023-01-06T01:53:04.161Z,97783.81
2023-01-06T01:55:32.021Z,97784.66
2023-01-06T01:58:13.784Z,97777.66
2023-01-06T02:00:41.375Z,97780.97
2023-01-06T02:03:07.967Z,97776.63
2023-01-06T02:05:38.067Z,97779.34
2023-01-06T02:08:07.941Z,97777.78
2023-01-06T02:10:34.385Z,97774.31
2023-01-06T02:13:01.442Z,97769.03
2023-01-06T02:15:29.324Z,97756.13
2023-01-06T02:18:14.866Z,97757.31
2023-01-06T02:20:41.226Z,97751.00
2023-01-06T02:23:07.559Z,97753.03
2023-01-06T02:25:52.323Z,97751.91
2023-01-06T02:28:30.920Z,97746.38
2023-01-06T02:31:16.240Z,97757.66
2023-01-06T02:33:50.917Z,97746.16
2023-01-06T02:36:35.992Z,97749.50
2023-01-06T02:39:14.643Z,97745.66
2023-01-06T02:42:07.558Z,97739.03
2023-01-06T02:44:56.985Z,97736.13
2023-01-06T02:47:29.533Z,97740.81
2023-01-06T02:50:04.049Z,97736.50
2023-01-06T02:52:41.871Z,97740.03
2023-01-06T02:55:16.326Z,97727.25
2023-01-06T02:57:48.401Z,97724.34
2023-01-06T03:00:17.741Z,97728.56
2023-01-06T03:02:47.137Z,97720.81
2023-01-06T03:05:16.137Z,97717.97
2023-01-06T03:07:49.389Z,97719.47
2023-01-06T03:10:20.343Z,97721.06
2023-01-06T03:12:54.327Z,97719.41
2023-01-06T03:15:21.077Z,97712.44
2023-01-06T03:17:50.602Z,97722.00
2023-01-06T03:20:20.186Z,97717.44
2023-01-06T03:22:46.732Z,97712.31
2023-01-06T03:25:14.088Z,97719.47
2023-01-06T03:27:40.552Z,97710.56
2023-01-06T03:30:09.815Z,97708.66
2023-01-06T03:32:48.457Z,97713.78
2023-01-06T03:35:16.307Z,97708.31
2023-01-06T03:38:01.273Z,97704.13
2023-01-06T03:41:06.131Z,97704.13
2023-01-06T03:43:52.545Z,97700.06
2023-01-06T03:46:24.723Z,97703.63
2023-01-06T03:49:01.275Z,97699.56
2023-01-06T03:51:27.629Z,97712.00
2023-01-06T03:54:09.485Z,97702.41
2023-01-06T03:56:41.965Z,97703.63
2023-01-06T03:59:12.289Z,97709.69
2023-01-06T04:01:40.074Z,97701.88
2023-01-06T04:04:06.747Z,97693.25
2023-01-06T04:06:33.162Z,97686.50
2023-01-06T04:08:59.594Z,97689.28
2023-01-06T04:11:44.774Z,97688.50
2023-01-06T04:14:11.566Z,97691.53
2023-01-06T04:16:37.974Z,97674.34
2023-01-06T04:19:04.461Z,97680.19
2023-01-06T04:21:33.511Z,97690.69
2023-01-06T04:23:59.966Z,97687.94
2023-01-06T04:26:26.323Z,97686.50
2023-01-06T04:28:52.731Z,97683.97
2023-01-06T04:31:19.312Z,97689.84
2023-01-06T04:33:45.821Z,97690.59
2023-01-06T04:36:12.235Z,97692.56
2023-01-06T04:38:38.636Z,97691.88
2023-01-06T04:41:05.024Z,97692.41
2023-01-06T04:43:31.473Z,97695.91
2023-01-06T04:45:58.493Z,97697.81
2023-01-06T04:48:25.323Z,97697.69
2023-01-06T04:50:59.765Z,97702.91
2023-01-06T04:53:26.158Z,97704.00
2023-01-06T04:55:53.751Z,97702.47
2023-01-06T04:58:20.141Z,97707.81
2023-01-06T05:00:46.622Z,97710.88
2023-01-06T05:03:13.035Z,97710.13
2023-01-06T05:05:39.407Z,97701.47
2023-01-06T05:08:05.796Z,97701.28
2023-01-06T05:10:32.266Z,97704.75
2023-01-06T05:12:58.669Z,97703.00
2023-01-06T05:15:25.117Z,97701.16
2023-01-06T05:17:51.481Z,97705.78
2023-01-06T05:20:18.023Z,97695.59
2023-01-06T05:22:44.452Z,97701.25
2023-01-06T05:25:10.868Z,97715.41
2023-01-06T05:27:38.458Z,97711.03
2023-01-06T05:30:05.153Z,97712.34
2023-01-06T05:32:31.654Z,97707.28
2023-01-06T05:34:58.095Z,97703.16
2023-01-06T05:37:24.493Z,97702.56
2023-01-06T05:39:50.902Z,97695.88
2023-01-06T05:52:45.570Z,97698.84
2023-01-06T05:55:14.846Z,97700.78
2023-01-06T06:11:40.480Z,97703.06
2023-01-06T06:26:55.113Z,97709.25
2023-01-06T06:29:21.752Z,97714.19
2023-01-06T06:31:48.123Z,97711.66
2023-01-06T06:34:14.588Z,97710.34
2023-01-06T06:36:41.123Z,97714.47
2023-01-06T06:39:07.645Z,97714.34
2023-01-06T06:41:41.669Z,97716.63
2023-01-06T06:44:08.190Z,97710.75
2023-01-06T06:47:16.399Z,97715.09
2023-01-06T07:56:45.568Z,97696.53
2023-01-06T07:59:11.933Z,97695.84
2023-01-06T08:08:13.285Z,97687.72
2023-01-06T08:14:07.360Z,97701.09
2023-01-06T08:56:29.749Z,97660.16
2023-01-06T08:58:58.201Z,97667.72
2023-01-06T09:01:28.318Z,97665.31
2023-01-06T09:03:55.548Z,97661.81
2023-01-06T09:06:34.523Z,97651.34
2023-01-06T09:09:02.721Z,97657.38
2023-01-06T09:11:32.195Z,97652.81
2023-01-06T09:13:58.756Z,97652.34
2023-01-06T09:16:25.371Z,97660.84
2023-01-06T09:18:52.073Z,97655.50
2023-01-06T09:21:21.130Z,97659.44
2023-01-06T09:23:48.341Z,97658.41
2023-01-06T09:26:16.603Z,97663.81
2023-01-06T09:28:45.001Z,97663.09
2023-01-06T09:31:12.015Z,97667.16
2023-01-06T09:33:39.104Z,97668.50
2023-01-06T09:36:06.545Z,97666.38
2023-01-06T09:38:33.107Z,97662.34
2023-01-06T09:41:30.102Z,97663.53
2023-01-06T09:44:20.643Z,97669.47
2023-01-06T09:46:50.287Z,97663.88
2023-01-06T09:49:19.775Z,97657.56
2023-01-06T09:51:46.362Z,97657.84
2023-01-06T09:54:22.511Z,97652.50
2023-01-06T09:56:51.673Z,97658.16
2023-01-06T09:59:28.488Z,97662.13
2023-01-06T10:01:59.617Z,97664.66
2023-01-06T10:04:27.873Z,97671.59
2023-01-06T10:07:00.656Z,97663.09
2023-01-06T10:09:33.098Z,97652.75
2023-01-06T10:12:28.480Z,97654.56
2023-01-06T10:15:17.516Z,97643.06
2023-01-06T10:18:27.157Z,97643.94
2023-01-06T10:21:09.898Z,97643.34
2023-01-06T10:23:36.417Z,97637.75
2023-01-06T10:26:21.217Z,97636.41
2023-01-06T10:28:53.179Z,97641.56
2023-01-06T10:31:33.206Z,97629.28
2023-01-06T10:34:47.900Z,97623.69
2023-01-06T10:37:21.046Z,97628.59
2023-01-06T10:39:50.162Z,97627.41
2023-01-06T10:42:40.191Z,97626.09
2023-01-06T10:45:10.914Z,97625.75
2023-01-06T10:47:41.970Z,97617.69
2023-01-06T10:50:12.655Z,97623.84
2023-01-06T10:52:42.471Z,97623.09
2023-01-06T10:55:13.180Z,97618.88
2023-01-06T11:01:06.562Z,97609.09
2023-01-06T11:03:35.497Z,97608.72
2023-01-06T11:06:03.962Z,97613.00
2023-01-06T11:08:30.944Z,97606.84
2023-01-06T11:10:57.670Z,97601.13
2023-01-06T11:13:29.504Z,97598.94
2023-01-06T11:15:59.225Z,97600.25
2023-01-06T11:18:27.291Z,97604.50
2023-01-06T11:21:02.995Z,97602.06
2023-01-06T11:23:29.843Z,97601.66
2023-01-06T11:26:16.179Z,97605.06
2023-01-06T11:28:43.867Z,97599.72
2023-01-06T11:31:19.281Z,97592.34
2023-01-06T11:33:50.513Z,97606.59
2023-01-06T11:36:17.802Z,97607.34
2023-01-06T11:38:46.233Z,97592.22
2023-01-06T11:41:13.856Z,97596.25
2023-01-06T11:43:43.572Z,97595.41
2023-01-06T11:46:10.637Z,97600.09
2023-01-06T11:48:40.323Z,97602.47
2023-01-06T11:51:08.908Z,97594.78
2023-01-06T11:53:37.092Z,97597.91
2023-01-06T11:56:04.706Z,97592.72
2023-01-06T11:58:49.933Z,97597.78
2023-01-06T12:01:35.085Z,97591.88
2023-01-06T12:04:21.792Z,97583.19
2023-01-06T12:06:50.020Z,97581.50
2023-01-06T12:09:19.474Z,97585.19
2023-01-06T12:11:48.137Z,97574.78
2023-01-06T12:14:30.571Z,97573.56
2023-01-06T12:17:05.988Z,97568.31
2023-01-06T12:19:35.337Z,97572.34
2023-01-06T12:22:01.909Z,97570.91
2023-01-06T12:24:29.936Z,97577.69
2023-01-06T12:26:57.256Z,97572.13
2023-01-06T12:29:23.990Z,97570.31
2023-01-06T12:32:00.175Z,97560.25
2023-01-06T12:34:32.138Z,97554.00
2023-01-06T12:37:11.781Z,97563.81
2023-01-06T12:39:57.586Z,97558.56
2023-01-06T12:42:39.265Z,97558.06
2023-01-06T12:45:12.526Z,97562.88
2023-01-06T12:47:45.721Z,97549.78
2023-01-06T12:50:18.142Z,97547.50
2023-01-06T12:52:50.636Z,97548.69
2023-01-06T12:55:20.434Z,97544.03
2023-01-06T12:57:47.136Z,97541.81
2023-01-06T13:00:28.571Z,97543.66
2023-01-06T13:02:55.042Z,97532.69
2023-01-06T13:05:40.439Z,97537.19
2023-01-06T13:08:39.433Z,97536.50
2023-01-06T13:11:23.092Z,97535.19
2023-01-06T13:13:49.404Z,97528.91
2023-01-06T13:16:24.354Z,97536.88
2023-01-06T13:18:50.768Z,97545.94
2023-01-06T13:21:19.379Z,97546.34
2023-01-06T13:23:54.684Z,97546.44
2023-01-06T13:26:39.917Z,97552.44
2023-01-06T13:29:24.760Z,97560.91
2023-01-06T13:32:00.545Z,97556.06
2023-01-06T13:34:36.421Z,97548.91
2023-01-06T13:37:09.082Z,97544.50
2023-01-06T13:39:39.259Z,97542.13
2023-01-06T13:42:07.624Z,97538.16
2023-01-06T13:44:38.184Z,97540.41
2023-01-06T13:47:07.470Z,97544.31
2023-01-06T13:49:36.324Z,97550.72
2023-01-06T13:52:03.482Z,97558.84
2023-01-06T13:54:39.165Z,97557.53
2023-01-06T13:57:27.518Z,97567.06
2023-01-06T14:00:05.253Z,97570.44
2023-01-06T14:02:31.801Z,97579.63
2023-01-06T14:04:58.420Z,97576.69
2023-01-06T14:07:35.606Z,97577.31
2023-01-06T14:10:02.938Z,97581.22
2023-01-06T14:12:30.912Z,97578.06
2023-01-06T14:15:04.956Z,97594.44
2023-01-06T14:27:50.517Z,97602.75
2023-01-06T14:30:24.680Z,97609.94
2023-01-06T14:32:51.077Z,97604.06
2023-01-06T14:35:23.049Z,97603.13
2023-01-06T14:38:00.025Z,97596.44
2023-01-06T14:40:27.993Z,97597.63
2023-01-06T14:42:57.626Z,97603.06
2023-01-06T14:45:34.949Z,97596.91
2023-01-06T14:48:04.127Z,97597.19
2023-01-06T14:50:45.766Z,97592.63
2023-01-06T14:53:13.211Z,97597.25
2023-01-06T14:55:45.184Z,97594.06
2023-01-06T14:58:31.459Z,97592.13
2023-01-06T15:00:58.408Z,97589.88
2023-01-06T15:03:26.099Z,97588.59
2023-01-06T15:06:08.721Z,97591.50
2023-01-06T15:08:35.113Z,97591.28
2023-01-06T15:11:12.090Z,97587.97
2023-01-06T15:13:38.549Z,97580.28
2023-01-06T15:16:15.475Z,97591.84
2023-01-06T15:18:42.763Z,97587.13
2023-01-06T15:21:09.195Z,97591.47
2023-01-06T15:23:42.280Z,97591.84
2023-01-06T15:26:17.218Z,97594.19
2023-01-06T15:28:54.710Z,97588.09
2023-01-06T15:31:21.194Z,97603.03
2023-01-06T15:33:47.743Z,97606.28
2023-01-06T15:36:19.294Z,97605.94
2023-01-06T15:38:47.068Z,97600.63
2023-01-06T15:41:32.541Z,97596.88
2023-01-06T15:43:59.754Z,97597.78
2023-01-06T15:46:27.651Z,97603.25
2023-01-06T15:48:54.084Z,97604.91
2023-01-06T15:51:22.048Z,97604.09
2023-01-06T15:53:54.058Z,97609.44
2023-01-06T15:56:28.388Z,97622.75
2023-01-06T15:58:56.300Z,97623.53
2023-01-06T16:01:23.520Z,97617.50
2023-01-06T16:03:49.962Z,97618.16
2023-01-06T16:06:25.035Z,97623.03
2023-01-06T16:08:51.459Z,97630.44
2023-01-06T16:11:37.801Z,97635.09
2023-01-06T16:14:05.409Z,97634.34
2023-01-06T16:16:33.640Z,97637.81
2023-01-06T16:19:07.937Z,97641.28
2023-01-06T16:21:35.588Z,97637.97
2023-01-06T16:24:03.874Z,97649.47
2023-01-06T16:26:32.031Z,97657.41
2023-01-06T16:28:59.548Z,97655.66
2023-01-06T16:31:29.061Z,97654.78
2023-01-06T16:33:55.731Z,97664.38
2023-01-06T16:36:22.202Z,97666.25
2023-01-06T16:38:48.585Z,97666.25
2023-01-06T16:41:18.550Z,97668.13
2023-01-06T16:43:45.894Z,97670.56
2023-01-06T16:46:25.010Z,97667.53
2023-01-06T16:48:53.186Z,97677.34
2023-01-06T16:51:19.642Z,97675.78
2023-01-06T16:53:47.091Z,97679.31
2023-01-06T16:56:23.174Z,97677.53
2023-01-06T16:58:50.442Z,97672.28
2023-01-06T17:01:18.284Z,97677.53
2023-01-06T17:03:46.074Z,97679.47
2023-01-06T17:06:22.327Z,97691.78
2023-01-06T17:08:49.155Z,97688.22
2023-01-06T17:11:17.129Z,97685.75
2023-01-06T17:13:50.692Z,97693.81
2023-01-06T17:16:18.009Z,97697.38
2023-01-06T17:18:52.225Z,97698.22
2023-01-06T17:21:27.875Z,97704.50
2023-01-06T17:23:54.272Z,97709.84
2023-01-06T17:26:21.451Z,97710.69
2023-01-06T17:28:49.251Z,97717.78
2023-01-06T17:31:17.326Z,97719.59
2023-01-06T17:33:45.530Z,97725.09
2023-01-06T17:36:21.599Z,97720.78
2023-01-06T17:38:49.259Z,97730.38
2023-01-06T17:41:16.155Z,97735.53
2023-01-06T17:43:42.630Z,97731.13
2023-01-06T17:46:29.913Z,97728.66
2023-01-06T17:49:16.627Z,97733.13
2023-01-06T17:51:43.045Z,97736.69
2023-01-06T17:54:35.159Z,97735.69
2023-01-06T17:57:06.970Z,97732.53
2023-01-06T18:01:41.743Z,97728.81
2023-01-06T18:04:14.892Z,97733.13
2023-01-06T18:08:07.837Z,97740.88
2023-01-06T18:10:36.276Z,97732.91
2023-01-06T18:13:25.968Z,97738.25
2023-01-06T18:16:01.998Z,97736.88
2023-01-06T18:18:32.865Z,97733.69
2023-01-06T18:21:02.540Z,97737.19
2023-01-06T18:23:29.241Z,97738.25
2023-01-06T18:25:56.442Z,97742.34
2023-01-06T18:28:22.996Z,97735.25
2023-01-06T18:31:12.399Z,97746.44
2023-01-06T18:33:38.870Z,97744.56
2023-01-06T18:36:07.364Z,97743.09
2023-01-06T18:38:33.738Z,97741.53
2023-01-06T18:41:00.153Z,97743.69
2023-01-06T18:43:29.575Z,97744.22
2023-01-06T18:45:57.826Z,97742.22
2023-01-06T18:48:34.099Z,97744.88
2023-01-06T18:51:01.727Z,97742.28
2023-01-06T18:53:28.105Z,97747.06
2023-01-06T18:55:57.585Z,97741.75
2023-01-06T18:58:30.099Z,97751.84
2023-01-06T19:00:57.759Z,97763.00
2023-01-06T19:03:32.277Z,97757.97
2023-01-06T19:06:06.558Z,97756.94
2023-01-06T19:08:37.176Z,97760.09
2023-01-06T19:11:06.483Z,97765.41
2023-01-06T19:13:33.083Z,97758.06
2023-01-06T19:16:07.782Z,97756.66
2023-01-06T19:18:34.272Z,97757.88
2023-01-06T19:21:03.455Z,97764.28
2023-01-06T19:23:31.941Z,97750.94
2023-01-06T19:26:04.682Z,97745.56
2023-01-06T19:28:32.950Z,97753.56
2023-01-06T19:31:00.548Z,97753.47
2023-01-06T19:34:06.128Z,97752.66
2023-01-06T19:36:38.678Z,97754.34
2023-01-06T19:39:15.379Z,97750.94
2023-01-06T19:41:41.879Z,97754.19
2023-01-06T19:44:08.281Z,97743.81
2023-01-06T19:46:38.443Z,97741.19
2023-01-06T19:49:30.846Z,97748.25
2023-01-06T19:51:57.366Z,97749.22
2023-01-06T19:54:27.794Z,97749.31
2023-01-06T19:56:55.319Z,97758.78
2023-01-06T19:59:32.646Z,97748.31
2023-01-06T20:02:03.342Z,97754.38
2023-01-06T20:04:29.979Z,97745.56
2023-01-06T20:06:56.408Z,97743.16
2023-01-06T20:09:22.957Z,97746.59
2023-01-06T20:11:50.370Z,97733.50
2023-01-06T20:14:16.989Z,97731.97
2023-01-06T20:16:43.553Z,97746.91
2023-01-06T20:19:10.013Z,97738.31
2023-01-06T20:21:37.716Z,97745.31
2023-01-06T20:24:04.783Z,97741.00
2023-01-06T20:26:31.174Z,97736.47
2023-01-06T20:28:57.586Z,97739.75
2023-01-06T20:31:24.029Z,97735.06
2023-01-06T20:33:50.504Z,97739.25
2023-01-06T20:36:17.299Z,97739.78
2023-01-06T20:38:44.666Z,97745.59
2023-01-06T20:41:11.654Z,97741.06
2023-01-06T20:43:38.458Z,97744.88
2023-01-06T20:46:05.321Z,97740.00
2023-01-06T20:48:31.851Z,97743.03
2023-01-06T20:50:58.286Z,97743.75
2023-01-06T20:53:24.748Z,97737.41
2023-01-06T20:55:51.235Z,97746.75
2023-01-06T20:58:17.678Z,97743.84
2023-01-06T21:00:44.161Z,97736.13
2023-01-06T21:03:10.643Z,97730.66
2023-01-06T21:05:37.176Z,97736.59
2023-01-06T21:08:03.604Z,97741.78
2023-01-06T21:10:30.668Z,97740.94
2023-01-06T21:12:58.327Z,97738.34
2023-01-06T21:15:26.215Z,97741.06
2023-01-06T21:17:52.878Z,97735.91
2023-01-06T21:20:19.275Z,97738.44
2023-01-06T21:22:45.668Z,97731.28
2023-01-06T21:25:12.274Z,97733.81
2023-01-06T21:27:38.742Z,97727.03
2023-01-06T21:30:05.394Z,97727.03
2023-01-06T21:32:31.794Z,97734.81
2023-01-06T21:34:58.661Z,97732.28
2023-01-06T21:37:25.160Z,97727.94
2023-01-06T21:39:51.561Z,97740.06
2023-01-06T21:42:36.592Z,97732.03
2023-01-06T21:45:03.133Z,97729.50
2023-01-06T21:47:29.571Z,97723.69
2023-01-06T21:49:56.030Z,97727.41
2023-01-06T21:52:22.438Z,97729.25
2023-01-06T21:54:49.453Z,97718.16
2023-01-06T21:57:15.914Z,97731.31
2023-01-06T21:59:42.319Z,97729.72
2023-01-06T22:02:09.064Z,97722.19
2023-01-06T22:04:35.570Z,97723.84
2023-01-06T22:07:04.200Z,97729.13
2023-01-06T22:09:31.195Z,97734.38
2023-01-06T22:11:58.339Z,97732.47
2023-01-06T22:14:25.548Z,97735.16
2023-01-06T22:16:52.452Z,97738.69
2023-01-06T22:19:18.920Z,97730.81
2023-01-06T22:21:46.296Z,97727.44
2023-01-06T22:24:15.030Z,97727.44
2023-01-06T22:26:41.526Z,97727.66
2023-01-06T22:29:08.335Z,97729.50
2023-01-06T22:31:35.477Z,97728.44
2023-01-06T22:34:02.049Z,97721.50
2023-01-06T22:36:28.446Z,97718.06
2023-01-06T22:38:55.087Z,97726.66
2023-01-06T22:41:21.494Z,97726.72
2023-01-06T22:43:47.900Z,97732.34
2023-01-06T22:46:15.683Z,97732.19
2023-01-06T22:48:44.842Z,97729.44
2023-01-06T22:51:11.897Z,97729.63
2023-01-06T22:53:38.314Z,97721.78
2023-01-06T22:56:06.170Z,97727.19
2023-01-06T22:58:33.018Z,97720.38
2023-01-06T23:00:59.438Z,97721.13
2023-01-06T23:03:26.059Z,97724.56
2023-01-06T23:05:59.601Z,97721.00
2023-01-06T23:08:26.836Z,97718.59
2023-01-06T23:11:00.360Z,97714.97
2023-01-06T23:13:27.144Z,97709.91
2023-01-06T23:16:00.868Z,97716.13
2023-01-06T23:18:27.496Z,97705.84
2023-01-06T23:20:57.718Z,97705.94
2023-01-06T23:23:24.166Z,97706.00
2023-01-06T23:25:50.568Z,97709.47
2023-01-06T23:28:16.925Z,97706.16
2023-01-06T23:30:43.475Z,97701.47
2023-01-06T23:33:09.909Z,97710.34
2023-01-06T23:35:36.352Z,97704.38
2023-01-06T23:38:03.641Z,97704.53
2023-01-06T23:40:30.135Z,97702.81
2023-01-06T23:42:56.565Z,97710.59
2023-01-06T23:45:22.963Z,97706.19
2023-01-06T23:47:49.336Z,97705.63
2023-01-06T23:50:15.699Z,97706.63
2023-01-06T23:52:42.089Z,97705.88
2023-01-06T23:55:08.635Z,97699.75
2023-01-06T23:57:35.064Z,97695.47
